createdAt,value
2023-05-06T00:00:56.963Z,98.50
2023-05-06T00:03:59.899Z,98.77
2023-05-06T00:07:04.209Z,97.92
2023-05-06T00:10:08.083Z,97.86
2023-05-06T00:13:11.229Z,97.61
2023-05-06T00:16:14.328Z,97.35
2023-05-06T00:19:17.134Z,97.70
2023-05-06T00:22:21.186Z,97.25
2023-05-06T00:25:24.170Z,97.47
2023-05-06T00:28:26.922Z,97.32
2023-05-06T00:31:29.603Z,97.47
2023-05-06T00:34:32.400Z,97.70
2023-05-06T00:37:36.605Z,97.99
2023-05-06T00:40:40.326Z,98.10
2023-05-06T00:43:43.024Z,97.99
2023-05-06T00:46:45.805Z,98.13
2023-05-06T00:49:49.470Z,98.02
2023-05-06T00:52:54.686Z,97.59
2023-05-06T00:55:57.513Z,97.45
2023-05-06T00:59:00.944Z,97.47
2023-05-06T01:02:04.440Z,97.68
2023-05-06T01:05:08.870Z,98.02
2023-05-06T01:08:22.487Z,97.68
2023-05-06T01:11:32.419Z,97.81
2023-05-06T01:14:41.460Z,97.56
2023-05-06T01:17:46.754Z,97.45
2023-05-06T01:20:51.870Z,97.30
2023-05-06T01:23:58.211Z,97.10
2023-05-06T01:27:01.501Z,97.14
2023-05-06T01:30:04.652Z,97.17
2023-05-06T01:33:15.331Z,97.07
2023-05-06T01:36:24.092Z,97.24
2023-05-06T01:39:31.900Z,97.03
2023-05-06T01:42:35.769Z,97.18
2023-05-06T01:45:40.489Z,97.37
2023-05-06T01:48:44.638Z,97.85
2023-05-06T01:51:49.324Z,98.02
2023-05-06T01:54:53.399Z,97.77
2023-05-06T01:57:56.520Z,97.39
2023-05-06T02:00:59.373Z,96.48
2023-05-06T02:04:02.481Z,96.38
2023-05-06T02:07:05.425Z,96.27
2023-05-06T02:10:10.352Z,96.15
2023-05-06T02:13:13.156Z,96.44
2023-05-06T02:16:15.890Z,96.65
2023-05-06T02:19:19.164Z,97.23
2023-05-06T02:22:21.910Z,96.91
2023-05-06T02:25:26.074Z,96.96
2023-05-06T02:28:28.871Z,96.79
2023-05-06T02:31:32.122Z,97.00
2023-05-06T02:34:34.893Z,96.96
2023-05-06T02:37:37.686Z,97.30
2023-05-06T02:40:41.796Z,97.64
2023-05-06T02:43:44.496Z,98.08
2023-05-06T02:46:47.209Z,98.31
2023-05-06T02:49:49.876Z,98.33
2023-05-06T02:52:52.586Z,98.59
2023-05-06T02:55:56.769Z,98.87
2023-05-06T02:58:59.568Z,99.04
2023-05-06T03:02:02.297Z,99.06
2023-05-06T03:05:05.474Z,98.94
2023-05-06T03:08:08.241Z,98.87
2023-05-06T03:11:12.278Z,98.75
2023-05-06T03:14:14.979Z,98.58
2023-05-06T03:17:17.736Z,98.42
2023-05-06T03:20:20.610Z,97.92
2023-05-06T03:23:23.354Z,98.00
2023-05-06T03:26:27.588Z,98.15
2023-05-06T03:29:30.868Z,97.88
2023-05-06T03:32:33.663Z,97.80
2023-05-06T03:35:36.479Z,97.48
2023-05-06T03:38:39.289Z,97.42
2023-05-06T03:41:43.462Z,97.41
2023-05-06T03:44:46.187Z,97.29
2023-05-06T03:47:48.878Z,97.18
2023-05-06T03:50:52.508Z,97.19
2023-05-06T03:53:56.500Z,96.94
2023-05-06T03:57:01.199Z,96.32
2023-05-06T04:00:04.116Z,95.87
2023-05-06T04:03:06.931Z,95.13
2023-05-06T04:06:09.751Z,93.68
2023-05-06T04:09:12.483Z,93.04
2023-05-06T04:12:16.569Z,92.76
2023-05-06T04:15:19.720Z,91.94
2023-05-06T04:18:22.450Z,91.87
2023-05-06T04:21:25.380Z,92.21
2023-05-06T04:24:29.481Z,92.63
2023-05-06T04:27:33.640Z,93.34
2023-05-06T04:30:36.649Z,93.64
2023-05-06T04:33:39.359Z,93.59
2023-05-06T04:36:42.059Z,93.42
2023-05-06T04:39:47.493Z,93.39
2023-05-06T04:42:52.163Z,93.46
2023-05-06T04:45:55.450Z,93.55
2023-05-06T04:48:58.342Z,93.63
2023-05-06T04:52:01.276Z,93.99
2023-05-06T04:55:04.240Z,94.16
2023-05-06T04:58:08.745Z,94.72
2023-05-06T05:01:11.848Z,94.93
2023-05-06T05:04:14.609Z,95.39
2023-05-06T05:07:17.400Z,96.08
2023-05-06T05:10:20.447Z,96.28
2023-05-06T05:13:24.548Z,96.54
2023-05-06T05:16:27.422Z,96.82
2023-05-06T05:19:30.121Z,97.11
2023-05-06T05:22:32.881Z,97.10
2023-05-06T05:25:35.643Z,97.53
2023-05-06T05:28:39.816Z,97.67
2023-05-06T05:31:42.960Z,97.82
2023-05-06T05:34:45.816Z,97.44
2023-05-06T05:37:49.227Z,96.93
2023-05-06T05:40:52.064Z,96.19
2023-05-06T05:43:56.170Z,94.80
2023-05-06T05:46:58.878Z,93.92
2023-05-06T05:50:01.642Z,93.39
2023-05-06T05:53:05.613Z,93.05
2023-05-06T05:56:08.625Z,90.98
2023-05-06T05:59:12.813Z,89.70
2023-05-06T06:02:15.592Z,89.75
2023-05-06T06:05:18.402Z,87.90
2023-05-06T06:08:21.150Z,88.26
2023-05-06T06:11:25.376Z,88.67
2023-05-06T06:14:29.505Z,86.70
2023-05-06T06:17:32.205Z,84.56
2023-05-06T06:20:35.000Z,84.76
2023-05-06T06:23:37.778Z,85.90
2023-05-06T06:26:40.654Z,85.58
2023-05-06T06:29:44.968Z,86.24
2023-05-06T06:32:52.082Z,85.91
2023-05-06T06:35:55.054Z,85.80
2023-05-06T06:38:57.933Z,85.28
2023-05-06T06:42:04.287Z,82.84
2023-05-06T06:45:09.852Z,82.65
2023-05-06T06:48:12.981Z,82.43
2023-05-06T06:51:15.929Z,81.57
2023-05-06T06:54:18.945Z,81.80
2023-05-06T06:57:21.953Z,81.63
2023-05-06T07:00:26.684Z,81.27
2023-05-06T07:03:29.718Z,81.54
2023-05-06T07:06:32.684Z,79.57
2023-05-06T07:09:35.897Z,78.70
2023-05-06T07:12:39.013Z,79.47
2023-05-06T07:15:43.948Z,79.72
2023-05-06T07:18:46.744Z,80.16
2023-05-06T07:21:49.795Z,79.71
2023-05-06T07:24:52.659Z,79.16
2023-05-06T07:27:55.574Z,78.68
2023-05-06T07:31:02.509Z,80.65
2023-05-06T07:34:05.455Z,79.11
2023-05-06T07:37:11.122Z,73.19
2023-05-06T07:40:14.482Z,70.37
2023-05-06T07:43:17.308Z,71.85
2023-05-06T07:46:21.810Z,71.58
2023-05-06T07:49:25.433Z,72.65
2023-05-06T07:52:28.708Z,73.26
2023-05-06T07:55:32.782Z,72.78
2023-05-06T07:58:37.765Z,73.32
2023-05-06T08:01:42.056Z,73.52
2023-05-06T08:04:46.306Z,74.66
2023-05-06T08:07:50.319Z,74.63
2023-05-06T08:10:53.215Z,74.31
2023-05-06T08:13:56.055Z,71.95
2023-05-06T08:17:03.938Z,71.02
2023-05-06T08:20:08.332Z,70.83
2023-05-06T08:23:11.276Z,69.01
2023-05-06T08:26:14.232Z,69.92
2023-05-06T08:29:17.428Z,69.74
2023-05-06T08:32:21.610Z,65.79
2023-05-06T08:35:24.874Z,65.80
2023-05-06T08:38:27.552Z,65.04
2023-05-06T08:41:31.539Z,66.54
2023-05-06T08:44:34.637Z,67.74
2023-05-06T08:47:39.326Z,64.29
2023-05-06T08:50:43.502Z,64.67
2023-05-06T08:53:49.238Z,66.15
2023-05-06T08:56:54.770Z,63.70
2023-05-06T08:59:58.054Z,64.07
2023-05-06T09:03:02.296Z,61.82
2023-05-06T09:06:06.284Z,60.44
2023-05-06T09:09:08.975Z,59.38
2023-05-06T09:12:13.564Z,58.34
2023-05-06T09:15:16.398Z,55.96
2023-05-06T09:18:20.758Z,56.53
2023-05-06T09:21:30.139Z,58.84
2023-05-06T09:24:32.989Z,58.48
2023-05-06T09:27:37.374Z,61.30
2023-05-06T09:30:40.750Z,55.32
2023-05-06T09:33:44.916Z,55.94
2023-05-06T09:36:47.797Z,57.11
2023-05-06T09:39:54.451Z,56.92
2023-05-06T09:42:58.080Z,57.67
2023-05-06T09:46:01.889Z,54.28
2023-05-06T09:49:06.959Z,56.95
2023-05-06T09:52:10.072Z,56.30
2023-05-06T09:55:13.123Z,55.73
2023-05-06T09:58:17.422Z,53.65
2023-05-06T10:01:32.674Z,50.30
2023-05-06T10:04:42.684Z,50.05
2023-05-06T10:07:49.753Z,53.24
2023-05-06T10:10:52.793Z,53.65
2023-05-06T10:13:55.835Z,53.00
2023-05-06T10:17:00.166Z,48.01
2023-05-06T10:20:07.796Z,47.53
2023-05-06T10:23:19.504Z,50.63
2023-05-06T10:26:23.632Z,52.06
2023-05-06T10:29:27.187Z,51.28
2023-05-06T10:32:33.508Z,50.29
2023-05-06T10:35:49.185Z,52.33
2023-05-06T10:38:56.386Z,52.30
2023-05-06T10:41:59.284Z,48.81
2023-05-06T10:45:03.947Z,52.45
2023-05-06T10:48:10.711Z,51.98
2023-05-06T10:51:26.004Z,52.06
2023-05-06T10:54:29.195Z,49.85
2023-05-06T10:57:41.632Z,48.59
2023-05-06T11:00:54.898Z,48.39
2023-05-06T11:03:57.992Z,50.14
2023-05-06T11:07:11.692Z,50.58
2023-05-06T11:10:15.343Z,48.05
2023-05-06T11:13:23.827Z,46.92
2023-05-06T11:16:49.372Z,49.46
2023-05-06T11:20:21.972Z,49.33
2023-05-06T11:24:07.645Z,50.36
2023-05-06T11:27:12.531Z,51.18
2023-05-06T11:30:17.299Z,51.04
2023-05-06T11:33:20.532Z,52.89
2023-05-06T11:36:23.988Z,51.50
2023-05-06T11:39:30.735Z,50.61
2023-05-06T11:42:34.028Z,49.54
2023-05-06T11:45:42.157Z,48.77
2023-05-06T11:48:45.059Z,49.06
2023-05-06T11:51:49.553Z,48.64
2023-05-06T11:54:54.291Z,50.70
2023-05-06T11:57:57.379Z,51.14
2023-05-06T12:01:02.436Z,50.57
2023-05-06T12:04:06.001Z,53.47
2023-05-06T12:07:12.166Z,52.78
2023-05-06T12:10:17.259Z,49.77
2023-05-06T12:13:21.075Z,49.90
2023-05-06T12:16:25.693Z,51.44
2023-05-06T12:19:30.430Z,48.36
2023-05-06T12:22:33.360Z,48.11
2023-05-06T12:25:37.681Z,47.97
2023-05-06T12:28:42.594Z,48.75
2023-05-06T12:31:47.250Z,50.22
2023-05-06T12:34:50.275Z,50.65
2023-05-06T12:37:53.299Z,50.70
2023-05-06T12:40:57.664Z,49.09
2023-05-06T12:44:00.532Z,48.50
2023-05-06T12:47:04.857Z,52.31
2023-05-06T12:50:08.045Z,49.96
2023-05-06T12:53:13.284Z,50.75
2023-05-06T12:56:17.447Z,48.05
2023-05-06T12:59:20.304Z,47.79
2023-05-06T13:02:23.176Z,47.28
2023-05-06T13:05:26.078Z,48.36
2023-05-06T13:08:29.596Z,50.93
2023-05-06T13:11:33.759Z,50.51
2023-05-06T13:14:39.281Z,49.28
2023-05-06T13:17:42.959Z,49.68
2023-05-06T13:20:45.940Z,49.87
2023-05-06T13:23:48.735Z,48.13
2023-05-06T13:26:52.974Z,49.79
2023-05-06T13:29:55.834Z,48.37
2023-05-06T13:32:58.734Z,50.62
2023-05-06T13:36:03.387Z,49.04
2023-05-06T13:39:08.808Z,44.60
2023-05-06T13:42:13.901Z,47.98
2023-05-06T13:45:16.718Z,46.16
2023-05-06T13:48:19.407Z,45.86
2023-05-06T13:51:22.060Z,50.61
2023-05-06T13:54:25.062Z,49.71
2023-05-06T13:57:29.119Z,49.48
2023-05-06T14:00:32.316Z,46.18
2023-05-06T14:03:35.062Z,45.57
2023-05-06T14:06:38.710Z,47.31
2023-05-06T14:09:41.467Z,44.68
2023-05-06T14:12:45.622Z,45.69
2023-05-06T14:15:48.373Z,47.11
2023-05-06T14:18:51.154Z,47.22
2023-05-06T14:21:53.862Z,47.77
2023-05-06T14:24:56.811Z,47.30
2023-05-06T14:28:00.987Z,48.26
2023-05-06T14:31:03.650Z,46.38
2023-05-06T14:34:06.413Z,43.95
2023-05-06T14:37:09.105Z,46.96
2023-05-06T14:40:12.297Z,44.10
2023-05-06T14:43:16.412Z,44.37
2023-05-06T14:46:19.189Z,43.61
2023-05-06T14:49:22.004Z,45.56
2023-05-06T14:52:24.713Z,44.91
2023-05-06T14:55:27.461Z,43.95
2023-05-06T14:58:31.872Z,43.33
2023-05-06T15:01:34.603Z,42.51
2023-05-06T15:04:38.057Z,44.93
2023-05-06T15:07:41.070Z,44.02
2023-05-06T15:10:44.390Z,45.63
2023-05-06T15:13:48.597Z,45.63
2023-05-06T15:16:51.489Z,44.99
2023-05-06T15:19:56.294Z,43.59
2023-05-06T15:22:59.254Z,43.58
2023-05-06T15:26:01.997Z,44.28
2023-05-06T15:29:06.573Z,45.28
2023-05-06T15:32:09.507Z,45.79
2023-05-06T15:35:12.489Z,46.32
2023-05-06T15:38:15.455Z,47.90
2023-05-06T15:41:18.834Z,44.67
2023-05-06T15:44:22.990Z,44.87
2023-05-06T15:47:25.889Z,43.13
2023-05-06T15:50:33.729Z,46.76
2023-05-06T15:53:40.057Z,46.59
2023-05-06T15:56:42.925Z,45.49
2023-05-06T15:59:47.213Z,46.25
2023-05-06T16:02:50.131Z,40.84
2023-05-06T16:05:54.573Z,43.50
2023-05-06T16:08:59.509Z,42.75
2023-05-06T16:12:03.990Z,42.04
2023-05-06T16:15:09.794Z,42.69
2023-05-06T16:18:12.919Z,44.07
2023-05-06T16:21:16.388Z,42.57
2023-05-06T16:24:19.350Z,44.65
2023-05-06T16:27:22.367Z,43.43
2023-05-06T16:30:27.171Z,42.73
2023-05-06T16:33:30.124Z,44.86
2023-05-06T16:36:32.903Z,45.82
2023-05-06T16:39:36.002Z,45.38
2023-05-06T16:42:39.118Z,44.15
2023-05-06T16:45:45.412Z,47.44
2023-05-06T16:48:48.210Z,45.71
2023-05-06T16:51:50.971Z,43.16
2023-05-06T16:54:54.830Z,42.85
2023-05-06T16:58:00.385Z,44.11
2023-05-06T17:01:07.963Z,42.64
2023-05-06T17:04:11.341Z,43.62
2023-05-06T17:07:14.353Z,46.71
2023-05-06T17:10:17.215Z,46.17
2023-05-06T17:13:20.004Z,45.41
2023-05-06T17:16:24.340Z,46.16
2023-05-06T17:19:27.107Z,45.64
2023-05-06T17:22:29.964Z,46.22
2023-05-06T17:25:32.903Z,47.57
2023-05-06T17:28:35.750Z,48.80
2023-05-06T17:31:39.958Z,49.91
2023-05-06T17:34:42.825Z,48.80
2023-05-06T17:37:46.425Z,48.56
2023-05-06T17:40:49.249Z,53.60
2023-05-06T17:43:52.045Z,53.53
2023-05-06T17:46:56.674Z,53.22
2023-05-06T17:49:59.613Z,54.38
2023-05-06T17:53:02.378Z,55.99
2023-05-06T17:56:05.799Z,57.00
2023-05-06T17:59:08.658Z,57.84
2023-05-06T18:02:15.817Z,58.70
2023-05-06T18:05:18.527Z,60.40
2023-05-06T18:08:21.380Z,61.09
2023-05-06T18:11:25.671Z,61.96
2023-05-06T18:14:28.592Z,62.76
2023-05-06T18:17:32.677Z,63.13
2023-05-06T18:20:35.517Z,62.94
2023-05-06T18:23:38.467Z,64.33
2023-05-06T18:26:45.524Z,64.02
2023-05-06T18:29:48.654Z,64.94
2023-05-06T18:32:54.541Z,64.83
2023-05-06T18:35:59.114Z,65.31
2023-05-06T18:39:02.437Z,65.31
2023-05-06T18:42:05.266Z,66.54
2023-05-06T18:45:09.278Z,66.59
2023-05-06T18:48:13.726Z,67.29
2023-05-06T18:51:18.177Z,67.22
2023-05-06T18:54:21.265Z,67.26
2023-05-06T18:57:26.401Z,67.57
2023-05-06T19:00:29.385Z,67.88
2023-05-06T19:03:35.609Z,68.23
2023-05-06T19:06:38.963Z,68.70
2023-05-06T19:09:43.181Z,69.17
2023-05-06T19:12:46.580Z,69.44
2023-05-06T19:15:49.236Z,69.67
2023-05-06T19:18:53.296Z,69.87
2023-05-06T19:21:57.128Z,69.91
2023-05-06T19:25:00.041Z,69.45
2023-05-06T19:28:02.748Z,69.51
2023-05-06T19:31:08.263Z,69.76
2023-05-06T19:34:12.540Z,69.85
2023-05-06T19:37:15.300Z,70.69
2023-05-06T19:40:18.864Z,71.33
2023-05-06T19:43:23.271Z,70.29
2023-05-06T19:46:26.222Z,70.78
2023-05-06T19:49:32.111Z,70.46
2023-05-06T19:52:34.924Z,70.59
2023-05-06T19:55:37.710Z,70.53
2023-05-06T19:58:41.186Z,71.62
2023-05-06T20:01:44.313Z,71.14
2023-05-06T20:04:48.504Z,71.73
2023-05-06T20:07:51.590Z,71.84
2023-05-06T20:10:54.590Z,72.58
2023-05-06T20:13:57.453Z,72.23
2023-05-06T20:17:02.454Z,73.01
2023-05-06T20:20:09.765Z,73.09
2023-05-06T20:23:12.646Z,73.02
2023-05-06T20:26:15.300Z,73.22
2023-05-06T20:29:18.775Z,73.06
2023-05-06T20:32:21.558Z,73.99
2023-05-06T20:35:26.048Z,73.95
2023-05-06T20:38:30.852Z,73.99
2023-05-06T20:41:33.702Z,74.36
2023-05-06T20:44:36.404Z,74.56
2023-05-06T20:47:39.158Z,74.35
2023-05-06T20:50:43.499Z,74.98
2023-05-06T20:53:47.401Z,75.79
2023-05-06T20:56:50.208Z,75.68
2023-05-06T20:59:53.028Z,75.75
2023-05-06T21:02:55.973Z,75.87
2023-05-06T21:06:00.201Z,75.94
2023-05-06T21:09:02.899Z,75.39
2023-05-06T21:12:06.248Z,75.39
2023-05-06T21:15:10.197Z,75.96
2023-05-06T21:18:13.078Z,75.83
2023-05-06T21:21:17.259Z,75.96
2023-05-06T21:24:20.080Z,75.52
2023-05-06T21:27:22.746Z,75.85
2023-05-06T21:30:25.649Z,76.21
2023-05-06T21:33:28.603Z,75.89
2023-05-06T21:36:32.691Z,76.55
2023-05-06T21:39:35.794Z,76.77
2023-05-06T21:42:38.576Z,76.72
2023-05-06T21:45:44.363Z,76.95
2023-05-06T21:48:47.038Z,77.17
2023-05-06T21:51:51.484Z,76.66
2023-05-06T21:54:54.838Z,77.14
2023-05-06T21:57:57.717Z,77.19
2023-05-06T22:01:00.423Z,77.97
2023-05-06T22:04:04.828Z,78.07
2023-05-06T22:07:11.474Z,78.43
2023-05-06T22:10:16.727Z,78.08
2023-05-06T22:13:22.896Z,78.15
2023-05-06T22:16:26.925Z,77.84
2023-05-06T22:19:29.881Z,78.03
2023-05-06T22:22:34.442Z,78.17
2023-05-06T22:25:38.112Z,77.88
2023-05-06T22:28:41.046Z,78.01
2023-05-06T22:31:43.971Z,78.50
2023-05-06T22:34:46.682Z,78.65
2023-05-06T22:37:50.813Z,78.39
2023-05-06T22:40:53.445Z,78.78
2023-05-06T22:43:57.221Z,79.17
2023-05-06T22:46:59.923Z,79.27
2023-05-06T22:50:02.878Z,79.13
2023-05-06T22:53:14.463Z,79.29
2023-05-06T22:56:19.014Z,79.46
2023-05-06T22:59:21.828Z,79.39
2023-05-06T23:02:24.569Z,79.48
2023-05-06T23:05:27.281Z,79.51
2023-05-06T23:08:31.525Z,79.85
2023-05-06T23:11:34.458Z,79.79
2023-05-06T23:14:37.208Z,80.41
2023-05-06T23:17:40.451Z,80.69
2023-05-06T23:20:43.315Z,80.11
2023-05-06T23:23:47.452Z,80.67
2023-05-06T23:26:50.278Z,81.17
2023-05-06T23:29:53.020Z,81.51
2023-05-06T23:32:55.815Z,81.45
2023-05-06T23:36:00.577Z,81.70
2023-05-06T23:39:04.921Z,81.87
2023-05-06T23:42:07.681Z,82.59
2023-05-06T23:45:11.775Z,82.80
2023-05-06T23:48:14.828Z,83.01
2023-05-06T23:51:17.591Z,83.32
2023-05-06T23:54:22.022Z,83.04
2023-05-06T23:57:24.845Z,83.35
